sensor_id;sensor_type;location;lat;lon;timestamp;temperature;humidity
15638;DHT22;26604;53.596;10.042;2023-04-01T00:00:00;10.40;99.90
15638;DHT22;26604;53.596;10.042;2023-04-01T00:02:27;10.40;99.90
15638;DHT22;26604;53.596;10.042;2023-04-01T00:04:54;10.40;99.90
15638;DHT22;26604;53.596;10.042;2023-04-01T00:07:20;10.40;99.90
15638;DHT22;26604;53.596;10.042;2023-04-01T00:09:49;10.40;99.90
15638;DHT22;26604;53.596;10.042;2023-04-01T00:12:15;10.40;99.90
15638;DHT22;26604;53.596;10.042;2023-04-01T00:14:42;10.40;99.90
15638;DHT22;26604;53.596;10.042;2023-04-01T00:17:09;10.40;99.90
15638;DHT22;26604;53.596;10.042;2023-04-01T00:19:36;10.40;99.90
15638;DHT22;26604;53.596;10.042;2023-04-01T00:22:02;10.40;99.90
15638;DHT22;26604;53.596;10.042;2023-04-01T00:24:29;10.30;99.90
15638;DHT22;26604;53.596;10.042;2023-04-01T00:26:57;10.30;99.90
15638;DHT22;26604;53.596;10.042;2023-04-01T00:29:24;10.30;99.90
15638;DHT22;26604;53.596;10.042;2023-04-01T00:31:55;10.30;99.90
15638;DHT22;26604;53.596;10.042;2023-04-01T00:34:21;10.30;99.90
15638;DHT22;26604;53.596;10.042;2023-04-01T00:36:49;10.30;99.90
15638;DHT22;26604;53.596;10.042;2023-04-01T00:39:15;10.40;99.90
15638;DHT22;26604;53.596;10.042;2023-04-01T00:41:42;10.30;99.90
15638;DHT22;26604;53.596;10.042;2023-04-01T00:44:16;10.30;99.90
15638;DHT22;26604;53.596;10.042;2023-04-01T00:46:43;10.30;99.90
15638;DHT22;26604;53.596;10.042;2023-04-01T00:49:10;10.30;99.90
15638;DHT22;26604;53.596;10.042;2023-04-01T00:51:36;10.30;99.90
15638;DHT22;26604;53.596;10.042;2023-04-01T00:54:04;10.30;99.90
15638;DHT22;26604;53.596;10.042;2023-04-01T00:56:32;10.20;99.90
15638;DHT22;26604;53.596;10.042;2023-04-01T00:59:02;10.20;99.90
15638;DHT22;26604;53.596;10.042;2023-04-01T01:01:31;10.20;99.90
15638;DHT22;26604;53.596;10.042;2023-04-01T01:03:58;10.20;99.90
15638;DHT22;26604;53.596;10.042;2023-04-01T01:06:31;10.20;99.90
15638;DHT22;26604;53.596;10.042;2023-04-01T01:09:13;10.20;99.90
15638;DHT22;26604;53.596;10.042;2023-04-01T01:11:43;10.20;99.90
15638;DHT22;26604;53.596;10.042;2023-04-01T01:16:58;10.20;99.90
15638;DHT22;26604;53.596;10.042;2023-04-01T01:19:32;10.10;99.90
15638;DHT22;26604;53.596;10.042;2023-04-01T01:22:05;10.10;99.90
15638;DHT22;26604;53.596;10.042;2023-04-01T01:24:40;10.20;99.90
15638;DHT22;26604;53.596;10.042;2023-04-01T01:27:09;10.10;99.90
15638;DHT22;26604;53.596;10.042;2023-04-01T01:29:57;10.10;99.90
15638;DHT22;26604;53.596;10.042;2023-04-01T01:35:15;10.10;99.90
15638;DHT22;26604;53.596;10.042;2023-04-01T01:37:43;10.10;99.90
15638;DHT22;26604;53.596;10.042;2023-04-01T01:40:11;10.10;99.90
15638;DHT22;26604;53.596;10.042;2023-04-01T01:42:39;10.10;99.90
15638;DHT22;26604;53.596;10.042;2023-04-01T01:45:07;10.00;99.90
15638;DHT22;26604;53.596;10.042;2023-04-01T01:47:35;10.10;99.90
15638;DHT22;26604;53.596;10.042;2023-04-01T01:50:02;10.00;99.90
15638;DHT22;26604;53.596;10.042;2023-04-01T01:52:31;10.10;99.90
15638;DHT22;26604;53.596;10.042;2023-04-01T01:54:58;10.00;99.90
15638;DHT22;26604;53.596;10.042;2023-04-01T01:57:26;10.10;99.90
15638;DHT22;26604;53.596;10.042;2023-04-01T01:59:54;10.10;99.90
15638;DHT22;26604;53.596;10.042;2023-04-01T02:02:22;10.00;99.90
15638;DHT22;26604;53.596;10.042;2023-04-01T02:04:49;10.10;99.90
15638;DHT22;26604;53.596;10.042;2023-04-01T02:07:18;10.00;99.90
15638;DHT22;26604;53.596;10.042;2023-04-01T02:09:47;10.00;99.90
15638;DHT22;26604;53.596;10.042;2023-04-01T02:12:15;10.00;99.90
15638;DHT22;26604;53.596;10.042;2023-04-01T02:14:43;10.00;99.90
15638;DHT22;26604;53.596;10.042;2023-04-01T02:17:12;10.00;99.90
15638;DHT22;26604;53.596;10.042;2023-04-01T02:19:41;10.00;99.90
15638;DHT22;26604;53.596;10.042;2023-04-01T02:22:11;10.00;99.90
15638;DHT22;26604;53.596;10.042;2023-04-01T02:24:39;10.00;99.90
15638;DHT22;26604;53.596;10.042;2023-04-01T02:27:08;10.00;99.90
15638;DHT22;26604;53.596;10.042;2023-04-01T02:29:35;10.00;99.90
15638;DHT22;26604;53.596;10.042;2023-04-01T02:32:02;9.90;99.90
15638;DHT22;26604;53.596;10.042;2023-04-01T02:34:29;10.00;99.90
15638;DHT22;26604;53.596;10.042;2023-04-01T02:36:55;10.00;99.90
15638;DHT22;26604;53.596;10.042;2023-04-01T02:39:23;10.00;99.90
15638;DHT22;26604;53.596;10.042;2023-04-01T02:41:50;10.00;99.90
15638;DHT22;26604;53.596;10.042;2023-04-01T02:44:18;10.00;99.90
15638;DHT22;26604;53.596;10.042;2023-04-01T02:46:45;10.00;99.90
15638;DHT22;26604;53.596;10.042;2023-04-01T02:49:12;10.00;99.90
15638;DHT22;26604;53.596;10.042;2023-04-01T02:51:39;10.00;99.90
15638;DHT22;26604;53.596;10.042;2023-04-01T02:54:05;10.00;99.90
15638;DHT22;26604;53.596;10.042;2023-04-01T02:56:32;10.00;99.90
15638;DHT22;26604;53.596;10.042;2023-04-01T02:58:59;10.00;99.90
15638;DHT22;26604;53.596;10.042;2023-04-01T03:01:27;9.90;99.90
15638;DHT22;26604;53.596;10.042;2023-04-01T03:03:53;9.90;99.90
15638;DHT22;26604;53.596;10.042;2023-04-01T03:06:20;9.90;99.90
15638;DHT22;26604;53.596;10.042;2023-04-01T03:08:47;9.90;99.90
15638;DHT22;26604;53.596;10.042;2023-04-01T03:11:13;9.90;99.90
15638;DHT22;26604;53.596;10.042;2023-04-01T03:13:40;9.90;99.90
15638;DHT22;26604;53.596;10.042;2023-04-01T03:16:07;9.90;99.90
15638;DHT22;26604;53.596;10.042;2023-04-01T03:18:35;9.90;99.90
15638;DHT22;26604;53.596;10.042;2023-04-01T03:21:14;9.90;99.90
15638;DHT22;26604;53.596;10.042;2023-04-01T03:23:41;9.90;99.90
15638;DHT22;26604;53.596;10.042;2023-04-01T03:26:08;9.90;99.90
15638;DHT22;26604;53.596;10.042;2023-04-01T03:28:35;9.90;99.90
15638;DHT22;26604;53.596;10.042;2023-04-01T03:31:01;9.90;99.90
15638;DHT22;26604;53.596;10.042;2023-04-01T03:33:28;9.90;99.90
15638;DHT22;26604;53.596;10.042;2023-04-01T03:35:56;9.90;99.90
15638;DHT22;26604;53.596;10.042;2023-04-01T03:38:23;9.90;99.90
15638;DHT22;26604;53.596;10.042;2023-04-01T03:40:49;9.90;99.90
15638;DHT22;26604;53.596;10.042;2023-04-01T03:43:16;9.90;99.90
15638;DHT22;26604;53.596;10.042;2023-04-01T03:45:43;9.90;99.90
15638;DHT22;26604;53.596;10.042;2023-04-01T03:48:10;9.90;99.90
15638;DHT22;26604;53.596;10.042;2023-04-01T03:50:37;9.90;99.90
15638;DHT22;26604;53.596;10.042;2023-04-01T03:53:05;9.90;99.90
15638;DHT22;26604;53.596;10.042;2023-04-01T03:55:31;9.30;99.90
15638;DHT22;26604;53.596;10.042;2023-04-01T03:57:59;9.90;99.90
15638;DHT22;26604;53.596;10.042;2023-04-01T04:00:27;9.90;99.90
15638;DHT22;26604;53.596;10.042;2023-04-01T04:02:54;9.90;99.90
15638;DHT22;26604;53.596;10.042;2023-04-01T04:05:21;9.90;99.90
15638;DHT22;26604;53.596;10.042;2023-04-01T04:07:48;9.90;99.90
15638;DHT22;26604;53.596;10.042;2023-04-01T04:10:16;9.90;99.90
15638;DHT22;26604;53.596;10.042;2023-04-01T04:12:43;9.90;99.90
15638;DHT22;26604;53.596;10.042;2023-04-01T04:15:10;9.90;99.90
15638;DHT22;26604;53.596;10.042;2023-04-01T04:17:37;9.90;99.90
15638;DHT22;26604;53.596;10.042;2023-04-01T04:20:04;9.90;99.90
15638;DHT22;26604;53.596;10.042;2023-04-01T04:22:31;9.90;99.90
15638;DHT22;26604;53.596;10.042;2023-04-01T04:24:58;9.90;99.90
15638;DHT22;26604;53.596;10.042;2023-04-01T04:27:26;9.90;99.90
15638;DHT22;26604;53.596;10.042;2023-04-01T04:29:53;9.90;99.90
15638;DHT22;26604;53.596;10.042;2023-04-01T04:32:19;9.90;99.90
15638;DHT22;26604;53.596;10.042;2023-04-01T04:34:46;9.90;99.90
15638;DHT22;26604;53.596;10.042;2023-04-01T04:37:13;9.90;99.90
15638;DHT22;26604;53.596;10.042;2023-04-01T04:39:39;9.90;99.90
15638;DHT22;26604;53.596;10.042;2023-04-01T04:42:06;9.90;99.90
15638;DHT22;26604;53.596;10.042;2023-04-01T04:44:34;9.90;99.90
15638;DHT22;26604;53.596;10.042;2023-04-01T04:47:01;9.90;99.90
15638;DHT22;26604;53.596;10.042;2023-04-01T04:49:27;9.90;99.90
15638;DHT22;26604;53.596;10.042;2023-04-01T04:51:54;9.90;99.90
15638;DHT22;26604;53.596;10.042;2023-04-01T04:54:21;9.90;99.90
15638;DHT22;26604;53.596;10.042;2023-04-01T04:56:48;9.80;99.90
15638;DHT22;26604;53.596;10.042;2023-04-01T04:59:17;9.80;99.90
15638;DHT22;26604;53.596;10.042;2023-04-01T05:01:45;9.90;99.90
15638;DHT22;26604;53.596;10.042;2023-04-01T05:04:11;9.90;99.90
15638;DHT22;26604;53.596;10.042;2023-04-01T05:06:38;9.80;99.90
15638;DHT22;26604;53.596;10.042;2023-04-01T05:09:05;9.90;99.90
15638;DHT22;26604;53.596;10.042;2023-04-01T05:11:31;9.90;99.90
15638;DHT22;26604;53.596;10.042;2023-04-01T05:13:58;9.90;99.90
15638;DHT22;26604;53.596;10.042;2023-04-01T05:16:25;9.90;99.90
15638;DHT22;26604;53.596;10.042;2023-04-01T05:18:53;9.90;99.90
15638;DHT22;26604;53.596;10.042;2023-04-01T05:21:20;9.80;99.90
15638;DHT22;26604;53.596;10.042;2023-04-01T05:23:46;9.60;99.90
15638;DHT22;26604;53.596;10.042;2023-04-01T05:26:14;9.40;99.90
15638;DHT22;26604;53.596;10.042;2023-04-01T05:28:40;9.30;99.90
15638;DHT22;26604;53.596;10.042;2023-04-01T05:31:07;9.10;99.90
15638;DHT22;26604;53.596;10.042;2023-04-01T05:33:35;9.10;99.90
15638;DHT22;26604;53.596;10.042;2023-04-01T05:36:07;9.00;99.90
15638;DHT22;26604;53.596;10.042;2023-04-01T05:38:34;8.90;99.90
15638;DHT22;26604;53.596;10.042;2023-04-01T05:41:00;8.80;99.90
15638;DHT22;26604;53.596;10.042;2023-04-01T05:43:27;8.70;99.90
15638;DHT22;26604;53.596;10.042;2023-04-01T05:45:55;8.70;99.90
15638;DHT22;26604;53.596;10.042;2023-04-01T05:48:21;8.50;99.90
15638;DHT22;26604;53.596;10.042;2023-04-01T05:50:48;8.50;99.90
15638;DHT22;26604;53.596;10.042;2023-04-01T05:53:16;8.40;99.90
15638;DHT22;26604;53.596;10.042;2023-04-01T05:55:43;8.30;99.90
15638;DHT22;26604;53.596;10.042;2023-04-01T05:58:09;8.30;99.90
15638;DHT22;26604;53.596;10.042;2023-04-01T06:00:36;8.20;99.90
15638;DHT22;26604;53.596;10.042;2023-04-01T06:03:03;8.10;99.90
15638;DHT22;26604;53.596;10.042;2023-04-01T06:05:30;8.00;99.90
15638;DHT22;26604;53.596;10.042;2023-04-01T06:07:58;8.00;99.90
15638;DHT22;26604;53.596;10.042;2023-04-01T06:10:29;7.90;99.90
15638;DHT22;26604;53.596;10.042;2023-04-01T06:13:02;7.90;99.90
15638;DHT22;26604;53.596;10.042;2023-04-01T06:15:34;7.80;99.90
15638;DHT22;26604;53.596;10.042;2023-04-01T06:18:17;7.80;99.90
15638;DHT22;26604;53.596;10.042;2023-04-01T06:20:49;7.80;99.90
15638;DHT22;26604;53.596;10.042;2023-04-01T06:23:22;7.70;99.90
15638;DHT22;26604;53.596;10.042;2023-04-01T06:25:55;7.70;99.90
15638;DHT22;26604;53.596;10.042;2023-04-01T06:28:34;7.70;99.90
15638;DHT22;26604;53.596;10.042;2023-04-01T06:31:07;7.70;99.90
15638;DHT22;26604;53.596;10.042;2023-04-01T06:33:40;7.60;99.90
15638;DHT22;26604;53.596;10.042;2023-04-01T06:36:19;7.60;99.90
15638;DHT22;26604;53.596;10.042;2023-04-01T06:38:59;7.60;99.90
15638;DHT22;26604;53.596;10.042;2023-04-01T06:44:18;7.50;99.90
15638;DHT22;26604;53.596;10.042;2023-04-01T06:46:47;7.50;99.90
15638;DHT22;26604;53.596;10.042;2023-04-01T06:49:21;7.50;99.90
15638;DHT22;26604;53.596;10.042;2023-04-01T06:51:52;7.50;99.90
15638;DHT22;26604;53.596;10.042;2023-04-01T06:54:21;7.50;99.90
15638;DHT22;26604;53.596;10.042;2023-04-01T06:56:53;7.50;99.90
15638;DHT22;26604;53.596;10.042;2023-04-01T06:59:22;7.50;99.90
15638;DHT22;26604;53.596;10.042;2023-04-01T07:01:51;7.50;99.90
15638;DHT22;26604;53.596;10.042;2023-04-01T07:04:20;7.50;99.90
15638;DHT22;26604;53.596;10.042;2023-04-01T07:06:48;7.50;99.90
15638;DHT22;26604;53.596;10.042;2023-04-01T07:09:18;7.50;99.90
15638;DHT22;26604;53.596;10.042;2023-04-01T07:11:46;7.50;99.90
15638;DHT22;26604;53.596;10.042;2023-04-01T07:14:14;7.50;99.90
15638;DHT22;26604;53.596;10.042;2023-04-01T07:16:45;7.50;99.90
15638;DHT22;26604;53.596;10.042;2023-04-01T07:19:15;7.50;99.90
15638;DHT22;26604;53.596;10.042;2023-04-01T07:21:44;7.50;99.90
15638;DHT22;26604;53.596;10.042;2023-04-01T07:24:14;7.40;99.90
15638;DHT22;26604;53.596;10.042;2023-04-01T07:26:43;7.40;99.90
15638;DHT22;26604;53.596;10.042;2023-04-01T07:29:10;7.40;99.90
15638;DHT22;26604;53.596;10.042;2023-04-01T07:31:49;7.40;99.90
15638;DHT22;26604;53.596;10.042;2023-04-01T07:34:21;7.40;99.90
15638;DHT22;26604;53.596;10.042;2023-04-01T07:36:51;7.40;99.90
15638;DHT22;26604;53.596;10.042;2023-04-01T07:39:26;7.30;99.90
15638;DHT22;26604;53.596;10.042;2023-04-01T07:41:57;7.30;99.90
15638;DHT22;26604;53.596;10.042;2023-04-01T07:44:29;7.30;99.90
15638;DHT22;26604;53.596;10.042;2023-04-01T07:47:03;7.30;99.90
15638;DHT22;26604;53.596;10.042;2023-04-01T07:49:35;7.30;99.90
15638;DHT22;26604;53.596;10.042;2023-04-01T07:52:06;7.30;99.90
15638;DHT22;26604;53.596;10.042;2023-04-01T07:54:37;7.20;99.90
15638;DHT22;26604;53.596;10.042;2023-04-01T07:57:06;7.30;99.90
15638;DHT22;26604;53.596;10.042;2023-04-01T07:59:37;7.30;99.90
15638;DHT22;26604;53.596;10.042;2023-04-01T08:02:10;7.40;99.90
15638;DHT22;26604;53.596;10.042;2023-04-01T08:04:44;7.30;99.90
15638;DHT22;26604;53.596;10.042;2023-04-01T08:07:15;7.30;99.90
15638;DHT22;26604;53.596;10.042;2023-04-01T08:09:44;7.40;99.90
15638;DHT22;26604;53.596;10.042;2023-04-01T08:12:20;7.40;99.90
15638;DHT22;26604;53.596;10.042;2023-04-01T08:14:52;7.40;99.90
15638;DHT22;26604;53.596;10.042;2023-04-01T08:17:24;7.40;99.90
15638;DHT22;26604;53.596;10.042;2023-04-01T08:19:56;7.40;99.90
15638;DHT22;26604;53.596;10.042;2023-04-01T08:22:29;7.50;99.90
15638;DHT22;26604;53.596;10.042;2023-04-01T08:24:58;7.50;99.90
15638;DHT22;26604;53.596;10.042;2023-04-01T08:27:28;7.50;99.90
15638;DHT22;26604;53.596;10.042;2023-04-01T08:29:58;7.60;99.90
15638;DHT22;26604;53.596;10.042;2023-04-01T08:32:31;7.60;99.90
15638;DHT22;26604;53.596;10.042;2023-04-01T08:35:04;7.60;99.90
15638;DHT22;26604;53.596;10.042;2023-04-01T08:37:34;7.60;99.90
15638;DHT22;26604;53.596;10.042;2023-04-01T08:40:21;7.60;99.90
15638;DHT22;26604;53.596;10.042;2023-04-01T08:42:52;7.60;99.90
15638;DHT22;26604;53.596;10.042;2023-04-01T08:45:41;7.50;99.90
15638;DHT22;26604;53.596;10.042;2023-04-01T08:48:25;7.50;99.90
15638;DHT22;26604;53.596;10.042;2023-04-01T08:51:15;7.50;99.90
15638;DHT22;26604;53.596;10.042;2023-04-01T08:53:50;7.60;99.90
15638;DHT22;26604;53.596;10.042;2023-04-01T08:56:18;7.70;99.90
15638;DHT22;26604;53.596;10.042;2023-04-01T09:01:39;7.70;99.90
15638;DHT22;26604;53.596;10.042;2023-04-01T09:04:27;7.70;99.90
15638;DHT22;26604;53.596;10.042;2023-04-01T09:07:02;7.80;99.90
15638;DHT22;26604;53.596;10.042;2023-04-01T09:09:43;7.80;99.90
15638;DHT22;26604;53.596;10.042;2023-04-01T09:15:23;7.90;99.90
15638;DHT22;26604;53.596;10.042;2023-04-01T09:18:02;7.90;99.90
15638;DHT22;26604;53.596;10.042;2023-04-01T09:20:35;7.90;99.90
15638;DHT22;26604;53.596;10.042;2023-04-01T09:23:10;7.90;99.90
15638;DHT22;26604;53.596;10.042;2023-04-01T09:25:46;8.00;99.90
15638;DHT22;26604;53.596;10.042;2023-04-01T09:28:16;8.00;99.90
15638;DHT22;26604;53.596;10.042;2023-04-01T09:30:57;8.10;99.90
15638;DHT22;26604;53.596;10.042;2023-04-01T09:33:41;8.00;99.90
15638;DHT22;26604;53.596;10.042;2023-04-01T09:36:12;8.20;99.90
15638;DHT22;26604;53.596;10.042;2023-04-01T09:38:46;8.30;99.90
15638;DHT22;26604;53.596;10.042;2023-04-01T09:41:21;8.20;99.90
15638;DHT22;26604;53.596;10.042;2023-04-01T09:43:56;8.20;99.90
15638;DHT22;26604;53.596;10.042;2023-04-01T09:46:29;8.20;99.90
15638;DHT22;26604;53.596;10.042;2023-04-01T09:51:46;8.10;99.90
15638;DHT22;26604;53.596;10.042;2023-04-01T09:54:24;8.10;99.90
15638;DHT22;26604;53.596;10.042;2023-04-01T09:59:50;8.30;99.90
15638;DHT22;26604;53.596;10.042;2023-04-01T10:02:33;8.30;99.90
15638;DHT22;26604;53.596;10.042;2023-04-01T10:05:11;8.40;99.90
15638;DHT22;26604;53.596;10.042;2023-04-01T10:07:55;8.40;99.90
15638;DHT22;26604;53.596;10.042;2023-04-01T10:10:45;8.50;99.90
15638;DHT22;26604;53.596;10.042;2023-04-01T10:13:17;8.50;99.90
15638;DHT22;26604;53.596;10.042;2023-04-01T10:15:58;8.70;99.90
15638;DHT22;26604;53.596;10.042;2023-04-01T10:18:34;8.70;99.90
15638;DHT22;26604;53.596;10.042;2023-04-01T10:21:07;8.90;99.90
15638;DHT22;26604;53.596;10.042;2023-04-01T10:23:42;9.20;99.90
15638;DHT22;26604;53.596;10.042;2023-04-01T10:26:21;9.40;99.90
15638;DHT22;26604;53.596;10.042;2023-04-01T10:29:02;9.40;99.90
15638;DHT22;26604;53.596;10.042;2023-04-01T10:34:23;9.20;99.90
15638;DHT22;26604;53.596;10.042;2023-04-01T10:36:54;9.10;99.90
15638;DHT22;26604;53.596;10.042;2023-04-01T10:39:30;9.00;99.90
15638;DHT22;26604;53.596;10.042;2023-04-01T10:44:49;8.70;99.90
15638;DHT22;26604;53.596;10.042;2023-04-01T10:47:27;8.80;99.90
15638;DHT22;26604;53.596;10.042;2023-04-01T10:53:09;9.00;99.90
15638;DHT22;26604;53.596;10.042;2023-04-01T10:58:42;9.10;99.90
15638;DHT22;26604;53.596;10.042;2023-04-01T11:01:35;9.10;99.90
15638;DHT22;26604;53.596;10.042;2023-04-01T11:07:12;8.90;99.90
15638;DHT22;26604;53.596;10.042;2023-04-01T11:18:11;8.70;99.90
15638;DHT22;26604;53.596;10.042;2023-04-01T11:20:57;8.60;99.90
15638;DHT22;26604;53.596;10.042;2023-04-01T11:23:37;8.50;99.90
15638;DHT22;26604;53.596;10.042;2023-04-01T11:26:13;8.50;99.90
15638;DHT22;26604;53.596;10.042;2023-04-01T11:28:50;8.40;99.90
15638;DHT22;26604;53.596;10.042;2023-04-01T11:31:25;8.40;99.90
15638;DHT22;26604;53.596;10.042;2023-04-01T11:34:00;8.40;99.90
15638;DHT22;26604;53.596;10.042;2023-04-01T11:36:32;8.30;99.90
15638;DHT22;26604;53.596;10.042;2023-04-01T11:39:05;8.30;99.90
15638;DHT22;26604;53.596;10.042;2023-04-01T11:41:37;8.30;99.90
15638;DHT22;26604;53.596;10.042;2023-04-01T11:44:17;8.20;99.90
15638;DHT22;26604;53.596;10.042;2023-04-01T11:47:02;8.20;99.90
15638;DHT22;26604;53.596;10.042;2023-04-01T11:49:39;8.10;99.90
15638;DHT22;26604;53.596;10.042;2023-04-01T11:52:16;8.10;99.90
15638;DHT22;26604;53.596;10.042;2023-04-01T11:54:56;8.10;99.90
15638;DHT22;26604;53.596;10.042;2023-04-01T11:57:35;8.10;99.90
15638;DHT22;26604;53.596;10.042;2023-04-01T12:00:19;8.10;99.90
15638;DHT22;26604;53.596;10.042;2023-04-01T12:02:51;8.10;99.90
15638;DHT22;26604;53.596;10.042;2023-04-01T12:05:25;8.00;99.90
15638;DHT22;26604;53.596;10.042;2023-04-01T12:08:04;8.00;99.90
15638;DHT22;26604;53.596;10.042;2023-04-01T12:10:33;7.90;99.90
15638;DHT22;26604;53.596;10.042;2023-04-01T12:13:04;7.70;99.90
15638;DHT22;26604;53.596;10.042;2023-04-01T12:15:38;7.60;99.90
15638;DHT22;26604;53.596;10.042;2023-04-01T12:18:12;7.50;99.90
15638;DHT22;26604;53.596;10.042;2023-04-01T12:20:45;7.50;99.90
15638;DHT22;26604;53.596;10.042;2023-04-01T12:23:19;7.50;99.90
15638;DHT22;26604;53.596;10.042;2023-04-01T12:25:58;7.50;99.90
15638;DHT22;26604;53.596;10.042;2023-04-01T12:28:29;7.50;99.90
15638;DHT22;26604;53.596;10.042;2023-04-01T12:31:04;7.40;99.90
15638;DHT22;26604;53.596;10.042;2023-04-01T12:33:47;7.50;99.90
15638;DHT22;26604;53.596;10.042;2023-04-01T12:36:20;7.40;99.90
15638;DHT22;26604;53.596;10.042;2023-04-01T12:38:55;7.40;99.90
15638;DHT22;26604;53.596;10.042;2023-04-01T12:41:26;7.40;99.90
15638;DHT22;26604;53.596;10.042;2023-04-01T12:46:41;7.40;99.90
15638;DHT22;26604;53.596;10.042;2023-04-01T12:49:15;7.40;99.90
15638;DHT22;26604;53.596;10.042;2023-04-01T12:51:51;7.40;99.90
15638;DHT22;26604;53.596;10.042;2023-04-01T12:54:43;7.30;99.90
15638;DHT22;26604;53.596;10.042;2023-04-01T12:57:21;7.30;99.90
15638;DHT22;26604;53.596;10.042;2023-04-01T12:59:55;7.20;99.90
15638;DHT22;26604;53.596;10.042;2023-04-01T13:02:26;7.20;99.90
15638;DHT22;26604;53.596;10.042;2023-04-01T13:05:01;7.20;99.90
15638;DHT22;26604;53.596;10.042;2023-04-01T13:07:42;7.20;99.90
15638;DHT22;26604;53.596;10.042;2023-04-01T13:10:13;7.20;99.90
15638;DHT22;26604;53.596;10.042;2023-04-01T13:12:50;7.10;99.90
15638;DHT22;26604;53.596;10.042;2023-04-01T13:15:25;7.10;99.90
15638;DHT22;26604;53.596;10.042;2023-04-01T13:17:53;7.10;99.90
15638;DHT22;26604;53.596;10.042;2023-04-01T13:20:26;7.20;99.90
15638;DHT22;26604;53.596;10.042;2023-04-01T13:22:59;7.20;99.90
15638;DHT22;26604;53.596;10.042;2023-04-01T13:25:29;7.10;99.90
15638;DHT22;26604;53.596;10.042;2023-04-01T13:28:01;7.10;99.90
15638;DHT22;26604;53.596;10.042;2023-04-01T13:30:30;7.10;99.90
15638;DHT22;26604;53.596;10.042;2023-04-01T13:33:01;7.10;99.90
15638;DHT22;26604;53.596;10.042;2023-04-01T13:35:34;7.10;99.90
15638;DHT22;26604;53.596;10.042;2023-04-01T13:38:11;7.10;99.90
15638;DHT22;26604;53.596;10.042;2023-04-01T13:40:42;7.10;99.90
15638;DHT22;26604;53.596;10.042;2023-04-01T13:43:12;7.10;99.90
15638;DHT22;26604;53.596;10.042;2023-04-01T13:45:45;7.00;99.90
15638;DHT22;26604;53.596;10.042;2023-04-01T13:48:29;7.00;99.90
15638;DHT22;26604;53.596;10.042;2023-04-01T13:51:10;7.10;99.90
15638;DHT22;26604;53.596;10.042;2023-04-01T13:53:44;7.00;99.90
15638;DHT22;26604;53.596;10.042;2023-04-01T13:56:16;7.00;99.90
15638;DHT22;26604;53.596;10.042;2023-04-01T13:58:55;6.90;99.90
15638;DHT22;26604;53.596;10.042;2023-04-01T14:01:25;6.90;99.90
15638;DHT22;26604;53.596;10.042;2023-04-01T14:06:45;7.00;99.90
15638;DHT22;26604;53.596;10.042;2023-04-01T14:09:28;7.00;99.90
15638;DHT22;26604;53.596;10.042;2023-04-01T14:11:57;7.10;99.90
15638;DHT22;26604;53.596;10.042;2023-04-01T14:14:30;7.10;99.90
15638;DHT22;26604;53.596;10.042;2023-04-01T14:17:10;7.10;99.90
15638;DHT22;26604;53.596;10.042;2023-04-01T14:19:50;7.20;99.90
15638;DHT22;26604;53.596;10.042;2023-04-01T14:22:21;7.10;99.90
15638;DHT22;26604;53.596;10.042;2023-04-01T14:24:56;7.20;99.90
15638;DHT22;26604;53.596;10.042;2023-04-01T14:27:31;7.20;99.90
15638;DHT22;26604;53.596;10.042;2023-04-01T14:30:05;7.20;99.90
15638;DHT22;26604;53.596;10.042;2023-04-01T14:32:40;7.10;99.90
15638;DHT22;26604;53.596;10.042;2023-04-01T14:35:16;7.10;99.90
15638;DHT22;26604;53.596;10.042;2023-04-01T14:46:24;7.00;99.90
15638;DHT22;26604;53.596;10.042;2023-04-01T14:48:53;7.80;99.90
15638;DHT22;26604;53.596;10.042;2023-04-01T14:51:23;7.00;99.90
15638;DHT22;26604;53.596;10.042;2023-04-01T14:53:59;7.00;99.90
15638;DHT22;26604;53.596;10.042;2023-04-01T14:56:39;6.90;99.90
15638;DHT22;26604;53.596;10.042;2023-04-01T14:59:08;6.90;99.90
15638;DHT22;26604;53.596;10.042;2023-04-01T15:01:38;6.80;99.90
15638;DHT22;26604;53.596;10.042;2023-04-01T15:04:14;6.70;99.90
15638;DHT22;26604;53.596;10.042;2023-04-01T15:06:55;6.70;99.90
15638;DHT22;26604;53.596;10.042;2023-04-01T15:09:25;6.60;99.90
15638;DHT22;26604;53.596;10.042;2023-04-01T15:11:57;6.60;99.90
15638;DHT22;26604;53.596;10.042;2023-04-01T15:17:18;6.60;99.90
15638;DHT22;26604;53.596;10.042;2023-04-01T15:19:50;6.50;99.90
15638;DHT22;26604;53.596;10.042;2023-04-01T15:22:32;6.40;99.90
15638;DHT22;26604;53.596;10.042;2023-04-01T15:25:15;6.40;99.90
15638;DHT22;26604;53.596;10.042;2023-04-01T15:27:44;6.30;99.90
15638;DHT22;26604;53.596;10.042;2023-04-01T15:30:19;6.30;99.90
15638;DHT22;26604;53.596;10.042;2023-04-01T15:32:52;6.30;99.90
15638;DHT22;26604;53.596;10.042;2023-04-01T15:35:26;6.30;99.90
15638;DHT22;26604;53.596;10.042;2023-04-01T15:37:57;6.20;99.90
15638;DHT22;26604;53.596;10.042;2023-04-01T15:40:26;6.20;99.90
15638;DHT22;26604;53.596;10.042;2023-04-01T15:42:57;6.10;99.90
15638;DHT22;26604;53.596;10.042;2023-04-01T15:45:31;6.00;99.90
15638;DHT22;26604;53.596;10.042;2023-04-01T15:48:05;6.00;99.90
15638;DHT22;26604;53.596;10.042;2023-04-01T15:53:24;6.00;99.90
15638;DHT22;26604;53.596;10.042;2023-04-01T15:55:55;6.00;99.90
15638;DHT22;26604;53.596;10.042;2023-04-01T15:58:33;6.00;99.90
15638;DHT22;26604;53.596;10.042;2023-04-01T16:01:03;5.90;99.90
15638;DHT22;26604;53.596;10.042;2023-04-01T16:03:37;5.90;99.90
15638;DHT22;26604;53.596;10.042;2023-04-01T16:06:11;5.90;99.90
15638;DHT22;26604;53.596;10.042;2023-04-01T16:08:50;5.90;99.90
15638;DHT22;26604;53.596;10.042;2023-04-01T16:11:23;5.90;99.90
15638;DHT22;26604;53.596;10.042;2023-04-01T16:13:54;5.80;99.90
15638;DHT22;26604;53.596;10.042;2023-04-01T16:16:26;5.80;99.90
15638;DHT22;26604;53.596;10.042;2023-04-01T16:19:01;5.80;99.90
15638;DHT22;26604;53.596;10.042;2023-04-01T16:21:43;5.80;99.90
15638;DHT22;26604;53.596;10.042;2023-04-01T16:24:16;5.80;99.90
15638;DHT22;26604;53.596;10.042;2023-04-01T16:26:47;5.70;99.90
15638;DHT22;26604;53.596;10.042;2023-04-01T16:29:19;5.70;99.90
15638;DHT22;26604;53.596;10.042;2023-04-01T16:31:46;5.70;99.90
15638;DHT22;26604;53.596;10.042;2023-04-01T16:34:17;5.70;99.90
15638;DHT22;26604;53.596;10.042;2023-04-01T16:36:47;5.70;99.90
15638;DHT22;26604;53.596;10.042;2023-04-01T16:39:25;5.70;99.90
15638;DHT22;26604;53.596;10.042;2023-04-01T16:41:57;5.70;99.90
15638;DHT22;26604;53.596;10.042;2023-04-01T16:44:43;5.60;99.90
15638;DHT22;26604;53.596;10.042;2023-04-01T16:47:11;5.60;99.90
15638;DHT22;26604;53.596;10.042;2023-04-01T16:49:41;5.60;99.90
15638;DHT22;26604;53.596;10.042;2023-04-01T16:52:30;5.60;99.90
15638;DHT22;26604;53.596;10.042;2023-04-01T16:54:57;5.50;99.90
15638;DHT22;26604;53.596;10.042;2023-04-01T16:57:26;5.50;99.90